createdAt,value
2022-10-25T00:01:55.388Z,11.56
2022-10-25T00:04:40.536Z,11.59
2022-10-25T00:07:25.327Z,11.54
2022-10-25T00:10:10.057Z,11.49
2022-10-25T00:12:54.721Z,11.51
2022-10-25T00:15:39.384Z,11.52
2022-10-25T00:18:24.156Z,11.49
2022-10-25T00:21:09.027Z,11.44
2022-10-25T00:23:53.837Z,11.48
2022-10-25T00:26:38.694Z,11.51
2022-10-25T00:32:13.117Z,11.45
2022-10-25T00:34:57.830Z,11.32
2022-10-25T00:37:42.627Z,11.29
2022-10-25T00:40:27.452Z,11.22
2022-10-25T00:43:12.319Z,11.19
2022-10-25T00:45:57.208Z,11.17
2022-10-25T00:48:42.031Z,11.10
2022-10-25T00:51:26.795Z,11.15
2022-10-25T00:54:11.597Z,11.13
2022-10-25T00:56:56.308Z,11.04
2022-10-25T00:59:41.015Z,11.08
2022-10-25T01:02:25.887Z,11.09
2022-10-25T01:05:10.504Z,11.11
2022-10-25T01:07:55.339Z,11.09
2022-10-25T01:10:40.100Z,11.11
2022-10-25T01:13:24.859Z,11.04
2022-10-25T01:16:09.621Z,10.94
2022-10-25T01:18:54.392Z,10.79
2022-10-25T01:21:39.161Z,10.69
2022-10-25T01:24:23.863Z,10.63
2022-10-25T01:27:08.655Z,10.64
2022-10-25T01:29:53.511Z,10.54
2022-10-25T01:32:38.345Z,10.45
2022-10-25T01:35:23.097Z,10.43
2022-10-25T01:38:07.740Z,10.43
2022-10-25T01:40:52.427Z,10.45
2022-10-25T01:43:37.177Z,10.53
2022-10-25T01:46:21.847Z,10.51
2022-10-25T01:49:06.803Z,10.44
2022-10-25T01:51:51.549Z,10.38
2022-10-25T01:54:36.219Z,10.29
2022-10-25T01:57:20.973Z,10.25
2022-10-25T02:00:05.845Z,10.34
2022-10-25T02:02:50.578Z,10.44
2022-10-25T02:05:35.184Z,10.50
2022-10-25T02:08:19.965Z,10.50
2022-10-25T02:11:04.657Z,10.46
2022-10-25T02:13:49.508Z,10.43
2022-10-25T02:16:34.332Z,10.40
2022-10-25T02:19:19.125Z,10.39
2022-10-25T02:22:03.944Z,10.32
2022-10-25T02:24:48.639Z,10.30
2022-10-25T02:27:33.599Z,10.27
2022-10-25T02:30:18.366Z,10.25
2022-10-25T02:33:03.289Z,10.24
2022-10-25T02:35:47.947Z,10.29
2022-10-25T02:38:32.677Z,10.29
2022-10-25T02:41:17.415Z,10.19
2022-10-25T02:44:02.188Z,10.10
2022-10-25T02:46:46.885Z,10.09
2022-10-25T02:49:31.679Z,10.01
2022-10-25T02:52:16.638Z,10.15
2022-10-25T02:55:01.400Z,10.16
2022-10-25T02:57:46.126Z,10.08
2022-10-25T03:00:30.854Z,10.09
2022-10-25T03:03:15.547Z,10.09
2022-10-25T03:06:00.187Z,10.08
2022-10-25T03:08:45.009Z,10.16
2022-10-25T03:11:29.675Z,10.14
2022-10-25T03:14:14.436Z,10.03
2022-10-25T03:16:59.078Z,10.01
2022-10-25T03:19:43.936Z,9.98
2022-10-25T03:22:28.773Z,9.85
2022-10-25T03:25:13.483Z,9.77
2022-10-25T03:27:58.417Z,9.82
2022-10-25T03:30:43.193Z,9.87
2022-10-25T03:33:28.172Z,9.89
2022-10-25T03:36:12.864Z,9.91
2022-10-25T03:38:57.719Z,9.99
2022-10-25T03:41:42.400Z,9.96
2022-10-25T03:44:27.136Z,9.89
2022-10-25T03:47:11.866Z,9.90
2022-10-25T03:49:56.590Z,9.89
2022-10-25T03:52:41.527Z,9.93
2022-10-25T03:55:26.196Z,9.93
2022-10-25T03:58:11.025Z,9.91
2022-10-25T04:00:55.792Z,9.80
2022-10-25T04:03:40.555Z,9.67
2022-10-25T04:06:25.322Z,9.65
2022-10-25T04:09:10.176Z,9.70
2022-10-25T04:11:54.833Z,9.70
2022-10-25T04:14:39.601Z,9.70
2022-10-25T04:17:24.256Z,9.72
2022-10-25T04:20:08.901Z,9.74
2022-10-25T04:22:53.600Z,9.75
2022-10-25T04:25:38.304Z,9.69
2022-10-25T04:28:23.132Z,9.68
2022-10-25T04:31:07.929Z,9.72
2022-10-25T04:33:52.865Z,9.76
2022-10-25T04:36:37.642Z,9.82
2022-10-25T04:39:22.539Z,9.78
2022-10-25T04:42:07.112Z,9.83
2022-10-25T04:44:51.938Z,9.85
2022-10-25T04:47:36.565Z,9.83
2022-10-25T04:50:21.396Z,9.85
2022-10-25T04:53:06.071Z,9.84
2022-10-25T04:55:50.882Z,9.80
2022-10-25T04:58:35.681Z,9.73
2022-10-25T05:01:20.544Z,9.73
2022-10-25T05:04:05.424Z,9.72
2022-10-25T05:06:50.083Z,9.70
2022-10-25T05:09:34.881Z,9.62
2022-10-25T05:12:19.544Z,9.58
2022-10-25T05:15:04.380Z,9.60
2022-10-25T05:17:49.131Z,9.54
2022-10-25T05:20:33.958Z,9.52
2022-10-25T05:23:18.725Z,9.52
2022-10-25T05:26:03.536Z,9.52
2022-10-25T05:28:48.494Z,9.51
2022-10-25T05:31:33.216Z,9.51
2022-10-25T05:34:18.017Z,9.54
2022-10-25T05:37:02.593Z,9.48
2022-10-25T05:39:47.243Z,9.55
2022-10-25T05:42:32.113Z,9.59
2022-10-25T05:45:16.804Z,9.52
2022-10-25T05:48:01.698Z,9.46
2022-10-25T05:50:46.484Z,9.44
2022-10-25T05:53:31.454Z,9.34
2022-10-25T05:56:16.168Z,9.27
2022-10-25T05:59:01.219Z,9.33
2022-10-25T06:01:45.961Z,9.38
2022-10-25T06:04:31.153Z,9.43
2022-10-25T06:07:15.902Z,9.40
2022-10-25T06:10:00.654Z,9.42
2022-10-25T06:12:45.518Z,9.46
2022-10-25T06:15:30.412Z,9.48
2022-10-25T06:18:15.151Z,9.49
2022-10-25T06:20:59.925Z,9.52
2022-10-25T06:23:44.783Z,9.55
2022-10-25T06:26:29.506Z,9.60
2022-10-25T06:29:14.498Z,9.60
2022-10-25T06:31:59.094Z,9.58
2022-10-25T06:34:43.749Z,9.51
2022-10-25T06:37:28.399Z,9.45
2022-10-25T06:40:13.245Z,9.33
2022-10-25T06:42:57.960Z,9.26
2022-10-25T06:45:43.013Z,9.27
2022-10-25T06:48:28.079Z,9.26
2022-10-25T06:51:12.804Z,9.34
2022-10-25T06:53:57.707Z,9.36
2022-10-25T06:56:42.388Z,9.34
2022-10-25T06:59:27.141Z,9.27
2022-10-25T07:02:11.976Z,9.28
2022-10-25T07:04:57.086Z,9.45
2022-10-25T07:07:41.871Z,9.67
2022-10-25T07:10:26.693Z,12.51
2022-10-25T07:13:11.463Z,14.40
2022-10-25T07:15:56.188Z,15.36
2022-10-25T07:18:41.057Z,15.95
2022-10-25T07:21:25.686Z,16.22
2022-10-25T07:24:10.568Z,16.22
2022-10-25T07:26:55.261Z,16.19
2022-10-25T07:29:40.259Z,16.06
2022-10-25T07:32:25.440Z,15.70
2022-10-25T07:35:10.305Z,15.22
2022-10-25T07:37:55.085Z,14.71
2022-10-25T07:40:39.715Z,14.09
2022-10-25T07:43:24.443Z,13.62
2022-10-25T07:46:09.214Z,13.39
2022-10-25T07:48:53.940Z,13.25
2022-10-25T07:51:38.642Z,13.17
2022-10-25T07:54:23.409Z,13.17
2022-10-25T07:57:08.096Z,13.10
2022-10-25T07:59:52.894Z,13.06
2022-10-25T08:02:37.510Z,12.84
2022-10-25T08:05:22.191Z,12.55
2022-10-25T08:08:06.941Z,12.54
2022-10-25T08:10:51.855Z,12.42
2022-10-25T08:13:36.599Z,12.46
2022-10-25T08:16:21.269Z,12.60
2022-10-25T08:19:05.938Z,12.77
2022-10-25T08:21:50.737Z,13.02
2022-10-25T08:24:35.495Z,13.17
2022-10-25T08:27:20.117Z,13.24
2022-10-25T08:30:04.807Z,13.39
2022-10-25T08:32:49.435Z,13.53
2022-10-25T08:35:34.143Z,13.64
2022-10-25T08:38:18.828Z,13.72
2022-10-25T08:41:03.530Z,13.86
2022-10-25T08:43:48.283Z,13.88
2022-10-25T08:46:33.039Z,14.01
2022-10-25T08:49:17.829Z,14.00
2022-10-25T08:52:02.531Z,14.02
2022-10-25T08:54:47.218Z,14.05
2022-10-25T08:57:32.185Z,14.10
2022-10-25T09:00:17.358Z,14.09
2022-10-25T09:03:02.179Z,14.14
2022-10-25T09:05:46.965Z,14.11
2022-10-25T09:08:31.615Z,14.18
2022-10-25T09:11:16.494Z,14.18
2022-10-25T09:14:01.346Z,14.28
2022-10-25T09:16:46.058Z,14.20
2022-10-25T09:19:30.933Z,13.99
2022-10-25T09:22:15.591Z,13.88
2022-10-25T09:25:00.501Z,13.93
2022-10-25T09:27:45.321Z,13.94
2022-10-25T09:30:30.410Z,13.86
2022-10-25T09:36:04.965Z,14.07
2022-10-25T09:38:49.798Z,14.26
2022-10-25T09:41:34.679Z,14.21
2022-10-25T09:44:19.521Z,14.22
2022-10-25T09:47:04.217Z,14.20
2022-10-25T09:49:49.046Z,13.99
2022-10-25T09:52:33.744Z,13.90
2022-10-25T09:55:18.651Z,13.69
2022-10-25T09:58:03.296Z,13.54
2022-10-25T10:00:47.952Z,13.46
2022-10-25T10:03:32.712Z,13.44
2022-10-25T10:06:17.400Z,13.43
2022-10-25T10:09:02.251Z,13.56
2022-10-25T10:11:47.002Z,13.55
2022-10-25T10:14:31.768Z,13.48
2022-10-25T10:17:16.337Z,13.46
2022-10-25T10:20:01.089Z,13.54
2022-10-25T10:22:45.699Z,13.62
2022-10-25T10:25:30.341Z,13.86
2022-10-25T10:28:15.079Z,14.07
2022-10-25T10:30:59.812Z,14.23
2022-10-25T10:33:44.703Z,14.17
2022-10-25T10:36:29.358Z,14.33
2022-10-25T10:39:14.027Z,14.52
2022-10-25T10:41:58.729Z,14.65
2022-10-25T10:44:43.477Z,14.83
2022-10-25T10:47:28.115Z,14.99
2022-10-25T10:50:13.047Z,15.13
2022-10-25T10:52:59.817Z,15.10
2022-10-25T10:55:45.232Z,14.99
2022-10-25T10:58:30.105Z,15.09
2022-10-25T11:01:14.717Z,14.88
2022-10-25T11:04:01.310Z,14.87
2022-10-25T11:06:46.332Z,14.90
2022-10-25T11:09:31.122Z,15.03
2022-10-25T11:12:15.925Z,14.90
2022-10-25T11:15:00.578Z,14.90
2022-10-25T11:17:45.880Z,15.06
2022-10-25T11:20:31.286Z,15.16
2022-10-25T11:23:16.167Z,15.26
2022-10-25T11:26:00.744Z,15.37
2022-10-25T11:28:45.609Z,15.42
2022-10-25T11:31:30.334Z,15.35
2022-10-25T11:34:15.222Z,15.30
2022-10-25T11:36:59.948Z,15.01
2022-10-25T11:39:48.180Z,14.91
2022-10-25T11:42:33.525Z,14.86
2022-10-25T11:45:18.133Z,14.78
2022-10-25T11:48:02.932Z,14.80
2022-10-25T11:50:47.758Z,14.93
2022-10-25T11:53:32.488Z,15.08
2022-10-25T11:56:17.144Z,15.22
2022-10-25T11:59:01.732Z,15.28
2022-10-25T12:01:46.669Z,15.23
2022-10-25T12:04:32.783Z,15.19
2022-10-25T12:07:19.434Z,15.31
2022-10-25T12:10:04.171Z,15.33
2022-10-25T12:12:49.522Z,15.44
2022-10-25T12:15:34.810Z,15.52
2022-10-25T12:18:23.881Z,15.54
2022-10-25T12:21:10.890Z,15.64
2022-10-25T12:23:55.672Z,15.69
2022-10-25T12:26:40.399Z,15.70
2022-10-25T12:29:25.047Z,15.70
2022-10-25T12:32:09.692Z,15.68
2022-10-25T12:34:54.707Z,15.73
2022-10-25T12:37:39.568Z,15.86
2022-10-25T12:43:09.946Z,15.85
2022-10-25T12:45:57.577Z,15.92
2022-10-25T12:48:43.450Z,15.97
2022-10-25T12:51:28.206Z,16.08
2022-10-25T12:54:13.024Z,16.23
2022-10-25T12:56:57.862Z,16.30
2022-10-25T12:59:42.526Z,16.34
2022-10-25T13:02:27.320Z,16.34
2022-10-25T13:05:12.129Z,16.22
2022-10-25T13:07:56.889Z,16.17
2022-10-25T13:10:41.606Z,16.12
2022-10-25T13:13:26.293Z,16.19
2022-10-25T13:16:11.115Z,16.30
2022-10-25T13:18:55.805Z,16.33
2022-10-25T13:21:40.497Z,16.48
2022-10-25T13:24:25.257Z,16.59
2022-10-25T13:27:10.102Z,16.69
2022-10-25T13:29:54.887Z,16.74
2022-10-25T13:32:39.565Z,16.81
2022-10-25T13:35:24.373Z,16.89
2022-10-25T13:38:09.027Z,16.87
2022-10-25T13:40:53.804Z,16.86
2022-10-25T13:43:38.521Z,16.82
2022-10-25T13:46:23.129Z,16.83
2022-10-25T13:49:07.814Z,16.85
2022-10-25T13:51:52.579Z,16.90
2022-10-25T13:54:37.997Z,16.84
2022-10-25T13:57:22.858Z,16.81
2022-10-25T14:02:57.285Z,16.79
2022-10-25T14:05:42.182Z,16.76
2022-10-25T14:08:26.904Z,16.73
2022-10-25T14:11:11.781Z,16.69
2022-10-25T14:13:56.588Z,16.68
2022-10-25T14:16:41.514Z,16.67
2022-10-25T14:19:26.233Z,16.73
2022-10-25T14:22:11.062Z,16.74
2022-10-25T14:24:55.723Z,16.75
2022-10-25T14:27:40.570Z,16.69
2022-10-25T14:30:25.381Z,16.50
2022-10-25T14:33:10.266Z,16.37
2022-10-25T14:35:55.059Z,16.29
2022-10-25T14:38:39.859Z,16.25
2022-10-25T14:41:24.638Z,16.21
2022-10-25T14:44:10.642Z,16.17
2022-10-25T14:46:57.780Z,16.16
2022-10-25T14:49:42.706Z,16.17
2022-10-25T14:52:27.681Z,16.11
2022-10-25T14:55:12.604Z,16.04
2022-10-25T14:57:57.431Z,16.04
2022-10-25T15:00:42.314Z,16.03
2022-10-25T15:03:26.980Z,15.95
2022-10-25T15:06:11.717Z,15.94
2022-10-25T15:09:16.181Z,16.01
2022-10-25T15:12:01.133Z,16.09
2022-10-25T15:14:46.064Z,16.13
2022-10-25T15:17:30.674Z,16.16
2022-10-25T15:20:15.292Z,16.17
2022-10-25T15:23:00.047Z,16.18
2022-10-25T15:25:44.738Z,16.18
2022-10-25T15:28:29.459Z,16.14
2022-10-25T15:31:16.121Z,16.14
2022-10-25T15:34:02.115Z,16.10
2022-10-25T15:36:46.752Z,16.02
2022-10-25T15:39:31.482Z,16.00
2022-10-25T15:42:16.147Z,15.89
2022-10-25T15:45:00.993Z,15.86
2022-10-25T15:47:45.656Z,15.82
2022-10-25T15:50:30.433Z,15.76
2022-10-25T15:53:15.127Z,15.70
2022-10-25T15:56:00.107Z,15.68
2022-10-25T15:58:44.890Z,15.56
2022-10-25T16:01:29.779Z,15.37
2022-10-25T16:04:15.157Z,15.28
2022-10-25T16:06:59.947Z,15.17
2022-10-25T16:09:44.703Z,15.04
2022-10-25T16:12:29.473Z,14.95
2022-10-25T16:15:14.256Z,14.86
2022-10-25T16:17:58.969Z,14.84
2022-10-25T16:20:43.699Z,14.82
2022-10-25T16:23:28.368Z,14.80
2022-10-25T16:26:13.101Z,14.79
2022-10-25T16:28:57.964Z,14.77
2022-10-25T16:31:42.643Z,14.76
2022-10-25T16:34:27.489Z,14.74
2022-10-25T16:37:12.194Z,14.72
2022-10-25T16:39:56.898Z,14.63
2022-10-25T16:42:41.608Z,14.64
2022-10-25T16:45:26.305Z,14.69
2022-10-25T16:48:10.841Z,14.67
2022-10-25T16:50:55.685Z,14.75
2022-10-25T16:53:40.402Z,14.77
2022-10-25T16:56:25.097Z,14.79
2022-10-25T16:59:09.871Z,14.83
2022-10-25T17:01:54.807Z,14.85
2022-10-25T17:04:40.045Z,14.84
2022-10-25T17:07:24.829Z,14.84
2022-10-25T17:10:09.603Z,14.85
2022-10-25T17:12:54.261Z,14.83
2022-10-25T17:15:39.068Z,14.77
2022-10-25T17:18:23.734Z,14.75
2022-10-25T17:21:08.391Z,14.75
2022-10-25T17:23:53.160Z,14.75
2022-10-25T17:26:37.920Z,14.72
2022-10-25T17:29:22.811Z,14.62
2022-10-25T17:32:07.570Z,14.62
2022-10-25T17:34:52.405Z,14.54
2022-10-25T17:37:37.283Z,14.54
2022-10-25T17:40:22.149Z,14.49
2022-10-25T17:43:06.975Z,14.50
2022-10-25T17:45:51.691Z,14.48
2022-10-25T17:48:36.439Z,14.45
2022-10-25T17:51:21.178Z,14.44
2022-10-25T17:54:06.055Z,14.50
2022-10-25T17:56:50.743Z,14.54
2022-10-25T17:59:35.514Z,14.55
2022-10-25T18:02:20.336Z,14.53
2022-10-25T18:05:19.943Z,14.49
2022-10-25T18:08:05.350Z,14.45
2022-10-25T18:10:50.148Z,14.39
2022-10-25T18:13:34.938Z,14.34
2022-10-25T18:16:19.838Z,14.33
2022-10-25T18:19:04.419Z,14.31
2022-10-25T18:21:49.245Z,14.28
2022-10-25T18:24:34.178Z,14.29
2022-10-25T18:27:19.029Z,14.28
2022-10-25T18:30:04.004Z,14.24
2022-10-25T18:32:48.699Z,14.27
2022-10-25T18:35:33.477Z,14.28
2022-10-25T18:38:18.114Z,14.22
2022-10-25T18:41:03.074Z,14.23
2022-10-25T18:43:47.674Z,14.28
2022-10-25T18:46:32.684Z,14.27
2022-10-25T18:49:17.177Z,14.30
2022-10-25T18:52:01.986Z,14.29
2022-10-25T18:54:46.697Z,14.36
2022-10-25T18:57:31.410Z,14.39
2022-10-25T19:00:16.235Z,14.41
2022-10-25T19:03:00.738Z,14.41
2022-10-25T19:05:45.536Z,14.44
2022-10-25T19:08:30.174Z,14.43
2022-10-25T19:11:15.023Z,14.49
2022-10-25T19:13:59.777Z,14.51
2022-10-25T19:16:44.647Z,14.53
2022-10-25T19:19:29.301Z,14.54
2022-10-25T19:22:14.086Z,14.49
2022-10-25T19:27:49.231Z,14.29
2022-10-25T19:30:37.564Z,14.37
2022-10-25T19:33:23.035Z,14.41
2022-10-25T19:36:07.833Z,14.41
2022-10-25T19:38:52.776Z,14.47
2022-10-25T19:41:37.593Z,14.50
2022-10-25T19:44:22.212Z,14.53
2022-10-25T19:47:07.077Z,14.59
2022-10-25T19:49:51.884Z,14.59
2022-10-25T19:52:36.796Z,14.57
2022-10-25T19:55:21.554Z,14.59
2022-10-25T19:58:06.536Z,14.51
2022-10-25T20:00:51.237Z,14.49
2022-10-25T20:03:36.151Z,14.51
2022-10-25T20:06:24.299Z,14.53
2022-10-25T20:09:10.123Z,14.57
2022-10-25T20:11:54.956Z,14.60
2022-10-25T20:14:39.689Z,14.61
2022-10-25T20:17:24.466Z,14.61
2022-10-25T20:20:09.177Z,14.56
2022-10-25T20:22:54.006Z,14.56
2022-10-25T20:25:38.635Z,14.53
2022-10-25T20:28:23.402Z,14.55
2022-10-25T20:31:08.300Z,14.59
2022-10-25T20:33:53.099Z,14.54
2022-10-25T20:36:37.960Z,14.50
2022-10-25T20:39:22.740Z,14.48
2022-10-25T20:42:07.672Z,14.47
2022-10-25T20:44:52.441Z,14.45
2022-10-25T20:47:37.629Z,14.51
2022-10-25T20:50:22.329Z,14.56
2022-10-25T20:53:10.142Z,14.59
2022-10-25T20:55:55.582Z,14.66
2022-10-25T20:58:40.383Z,14.66
2022-10-25T21:01:25.313Z,14.71
2022-10-25T21:04:10.425Z,14.77
2022-10-25T21:06:55.351Z,14.75
2022-10-25T21:09:40.306Z,14.74
2022-10-25T21:12:25.069Z,14.72
2022-10-25T21:15:12.010Z,14.71
2022-10-25T21:17:56.993Z,14.67
2022-10-25T21:20:41.696Z,14.70
2022-10-25T21:23:26.467Z,14.73
2022-10-25T21:26:11.221Z,14.70
2022-10-25T21:28:55.919Z,14.65
2022-10-25T21:31:40.726Z,14.63
2022-10-25T21:34:25.522Z,14.57
2022-10-25T21:37:10.386Z,14.54
2022-10-25T21:39:55.371Z,14.54
2022-10-25T21:42:40.621Z,14.57
2022-10-25T21:45:25.479Z,14.55
2022-10-25T21:48:10.040Z,14.58
2022-10-25T21:50:54.860Z,14.60
2022-10-25T21:53:39.592Z,14.64
2022-10-25T21:56:24.336Z,14.67
2022-10-25T21:59:09.101Z,14.63
2022-10-25T22:01:53.954Z,14.59
2022-10-25T22:04:39.191Z,14.61
2022-10-25T22:07:23.820Z,14.61
2022-10-25T22:10:08.709Z,14.56
2022-10-25T22:12:53.362Z,14.56
2022-10-25T22:15:38.130Z,14.61
2022-10-25T22:18:22.823Z,14.60
2022-10-25T22:21:07.701Z,14.65
2022-10-25T22:23:52.386Z,14.64
2022-10-25T22:26:37.120Z,14.64
2022-10-25T22:29:22.304Z,14.62
2022-10-25T22:32:06.950Z,14.63
2022-10-25T22:34:51.925Z,14.58
2022-10-25T22:37:36.931Z,14.58
2022-10-25T22:40:21.818Z,14.58
2022-10-25T22:43:06.586Z,14.58
2022-10-25T22:45:51.317Z,14.61
2022-10-25T22:48:35.976Z,14.62
2022-10-25T22:51:20.875Z,14.64
2022-10-25T22:54:05.651Z,14.66
2022-10-25T22:56:50.302Z,14.62
2022-10-25T22:59:35.095Z,14.62
2022-10-25T23:02:19.859Z,14.61
2022-10-25T23:05:04.764Z,14.60
2022-10-25T23:07:49.774Z,14.58
2022-10-25T23:10:34.619Z,14.58
2022-10-25T23:13:19.376Z,14.62
2022-10-25T23:16:04.045Z,14.63
2022-10-25T23:18:48.692Z,14.59
2022-10-25T23:21:33.580Z,14.53
2022-10-25T23:24:18.269Z,14.59
2022-10-25T23:27:02.947Z,14.57
2022-10-25T23:29:47.901Z,14.59
2022-10-25T23:32:32.589Z,14.59
2022-10-25T23:35:17.442Z,14.57
2022-10-25T23:38:02.084Z,14.52
2022-10-25T23:40:46.887Z,14.48
2022-10-25T23:43:31.556Z,14.43
2022-10-25T23:46:16.391Z,14.40
2022-10-25T23:49:01.133Z,14.31
2022-10-25T23:51:45.974Z,14.29
2022-10-25T23:54:30.780Z,14.27
2022-10-25T23:57:15.435Z,14.19
